createdAt,value
2023-07-30T00:03:37.806Z,15.00
2023-07-30T00:07:39.515Z,14.90
2023-07-30T00:11:41.376Z,14.80
2023-07-30T00:15:43.334Z,14.80
2023-07-30T00:19:45.025Z,14.70
2023-07-30T00:23:47.064Z,14.70
2023-07-30T00:27:48.810Z,14.60
2023-07-30T00:31:50.567Z,14.60
2023-07-30T00:35:55.441Z,14.50
2023-07-30T00:39:57.099Z,14.50
2023-07-30T00:43:58.927Z,14.50
2023-07-30T00:48:00.934Z,14.50
2023-07-30T00:52:03.398Z,14.50
2023-07-30T00:56:05.217Z,14.50
2023-07-30T01:00:09.842Z,14.40
2023-07-30T01:04:11.651Z,14.30
2023-07-30T01:08:15.459Z,14.20
2023-07-30T01:12:17.518Z,14.10
2023-07-30T01:16:19.269Z,14.10
2023-07-30T01:20:21.654Z,14.10
2023-07-30T01:24:23.299Z,14.00
2023-07-30T01:28:25.446Z,14.00
2023-07-30T01:32:29.736Z,14.00
2023-07-30T01:36:33.110Z,14.10
2023-07-30T01:40:34.968Z,14.20
2023-07-30T01:44:36.665Z,14.30
2023-07-30T01:48:38.330Z,14.50
2023-07-30T01:52:39.987Z,14.50
2023-07-30T01:56:42.017Z,14.60
2023-07-30T02:00:43.842Z,14.70
2023-07-30T02:04:45.714Z,14.70
2023-07-30T02:08:47.388Z,14.70
2023-07-30T02:12:49.060Z,14.60
2023-07-30T02:16:50.745Z,14.60
2023-07-30T02:20:52.427Z,14.50
2023-07-30T02:24:54.172Z,14.50
2023-07-30T02:28:55.952Z,14.40
2023-07-30T02:32:57.879Z,14.30
2023-07-30T02:36:59.531Z,14.40
2023-07-30T02:41:01.197Z,14.40
2023-07-30T02:45:02.999Z,14.30
2023-07-30T02:49:04.703Z,14.30
2023-07-30T02:53:06.441Z,14.30
2023-07-30T02:57:08.098Z,14.20
2023-07-30T03:01:10.681Z,14.20
2023-07-30T03:05:12.543Z,14.10
2023-07-30T03:09:14.201Z,14.00
2023-07-30T03:13:15.880Z,14.00
2023-07-30T03:17:17.543Z,14.00
2023-07-30T03:21:19.243Z,13.90
2023-07-30T03:25:20.939Z,13.80
2023-07-30T03:29:22.835Z,13.70
2023-07-30T03:33:25.773Z,13.70
2023-07-30T03:37:27.430Z,13.60
2023-07-30T03:41:29.164Z,13.70
2023-07-30T03:45:30.932Z,13.80
2023-07-30T03:49:32.603Z,13.80
2023-07-30T03:53:34.492Z,13.90
2023-07-30T03:57:36.169Z,13.80
2023-07-30T04:01:38.046Z,13.80
2023-07-30T04:05:39.862Z,13.80
2023-07-30T04:09:41.551Z,13.80
2023-07-30T04:13:43.758Z,13.90
2023-07-30T04:17:45.480Z,13.90
2023-07-30T04:21:47.293Z,14.00
2023-07-30T04:25:52.458Z,14.10
2023-07-30T04:29:54.232Z,14.20
2023-07-30T04:33:55.946Z,14.30
2023-07-30T04:37:57.699Z,14.40
2023-07-30T04:41:59.415Z,14.40
2023-07-30T04:46:01.133Z,14.50
2023-07-30T04:50:02.938Z,14.60
2023-07-30T04:54:04.782Z,14.70
2023-07-30T04:58:06.521Z,14.70
2023-07-30T05:02:08.468Z,14.70
2023-07-30T05:06:10.249Z,14.70
2023-07-30T05:10:12.028Z,14.70
2023-07-30T05:14:13.758Z,14.80
2023-07-30T05:18:15.444Z,14.80
2023-07-30T05:22:17.116Z,14.80
2023-07-30T05:26:18.799Z,14.80
2023-07-30T05:30:20.517Z,14.80
2023-07-30T05:34:22.224Z,14.90
2023-07-30T05:38:24.007Z,14.80
2023-07-30T05:42:25.734Z,14.90
2023-07-30T05:46:27.415Z,14.80
2023-07-30T05:50:29.098Z,14.70
2023-07-30T05:54:30.754Z,14.70
2023-07-30T05:58:32.503Z,14.70
2023-07-30T06:02:34.247Z,14.70
2023-07-30T06:06:35.952Z,14.80
2023-07-30T06:10:41.616Z,14.90
2023-07-30T06:14:43.587Z,14.80
2023-07-30T06:18:45.238Z,14.90
2023-07-30T06:22:46.947Z,14.90
2023-07-30T06:26:48.659Z,14.90
2023-07-30T06:30:50.353Z,15.00
2023-07-30T06:34:52.015Z,15.10
2023-07-30T06:38:53.686Z,15.10
2023-07-30T06:42:55.363Z,15.10
2023-07-30T06:46:57.123Z,15.20
2023-07-30T06:50:59.096Z,15.30
2023-07-30T06:55:00.893Z,15.30
2023-07-30T06:59:03.987Z,15.40
2023-07-30T07:03:05.812Z,15.50
2023-07-30T07:07:07.621Z,15.50
2023-07-30T07:11:09.452Z,15.60
2023-07-30T07:15:11.106Z,15.70
2023-07-30T07:19:12.788Z,15.70
2023-07-30T07:23:14.510Z,15.70
2023-07-30T07:27:16.223Z,15.70
2023-07-30T07:31:18.060Z,15.80
2023-07-30T07:35:23.846Z,15.80
2023-07-30T07:39:25.622Z,15.90
2023-07-30T07:43:27.552Z,15.90
2023-07-30T07:47:29.315Z,16.10
2023-07-30T07:51:31.293Z,16.30
2023-07-30T07:55:33.351Z,16.30
2023-07-30T07:59:35.259Z,16.40
2023-07-30T08:03:36.967Z,16.40
2023-07-30T08:07:38.760Z,16.30
2023-07-30T08:11:40.521Z,16.30
2023-07-30T08:15:42.314Z,16.40
2023-07-30T08:19:44.324Z,16.50
2023-07-30T08:23:47.449Z,16.50
2023-07-30T08:27:49.198Z,16.50
2023-07-30T08:31:50.972Z,16.50
2023-07-30T08:35:56.913Z,16.60
2023-07-30T08:39:58.651Z,16.80
2023-07-30T08:44:00.449Z,17.00
2023-07-30T08:48:02.246Z,17.20
2023-07-30T08:52:04.840Z,17.40
2023-07-30T08:56:06.986Z,17.30
2023-07-30T09:00:10.314Z,17.50
2023-07-30T09:04:12.423Z,17.60
2023-07-30T09:08:15.331Z,17.60
2023-07-30T09:12:17.250Z,17.60
2023-07-30T09:16:18.943Z,18.00
2023-07-30T09:20:20.689Z,18.30
2023-07-30T09:24:23.555Z,19.00
2023-07-30T09:28:32.627Z,19.10
2023-07-30T09:32:36.124Z,19.50
2023-07-30T09:36:37.877Z,19.70
2023-07-30T09:40:39.916Z,20.40
2023-07-30T09:44:41.708Z,21.10
2023-07-30T09:48:43.413Z,21.20
2023-07-30T09:52:45.736Z,21.60
2023-07-30T09:56:47.474Z,21.70
2023-07-30T10:00:51.100Z,22.10
2023-07-30T10:04:57.524Z,22.20
2023-07-30T10:09:01.054Z,21.70
2023-07-30T10:13:10.754Z,21.30
2023-07-30T10:17:12.774Z,21.10
2023-07-30T10:21:24.146Z,21.20
2023-07-30T10:25:31.321Z,20.90
2023-07-30T10:29:36.880Z,21.00
2023-07-30T10:33:45.241Z,20.80
2023-07-30T10:37:48.697Z,20.30
2023-07-30T10:41:52.024Z,20.10
2023-07-30T10:45:54.631Z,20.40
2023-07-30T10:50:03.138Z,20.70
2023-07-30T10:54:07.257Z,20.70
2023-07-30T10:58:09.215Z,20.90
2023-07-30T11:02:13.228Z,21.30
2023-07-30T11:06:14.927Z,20.80
2023-07-30T11:10:16.725Z,20.40
2023-07-30T11:14:26.973Z,20.30
2023-07-30T11:18:33.812Z,20.20
2023-07-30T11:22:36.466Z,20.40
2023-07-30T11:26:38.294Z,20.90
2023-07-30T11:30:40.425Z,20.90
2023-07-30T11:34:42.191Z,20.50
2023-07-30T11:38:44.684Z,20.50
2023-07-30T11:42:46.574Z,20.70
2023-07-30T11:46:55.529Z,20.70
2023-07-30T11:50:57.257Z,20.80
2023-07-30T11:55:05.505Z,21.10
2023-07-30T11:59:08.482Z,21.00
2023-07-30T12:03:13.708Z,21.00
2023-07-30T12:07:24.672Z,20.70
2023-07-30T12:11:26.426Z,20.50
2023-07-30T12:15:30.548Z,20.50
2023-07-30T12:19:32.398Z,20.50
2023-07-30T12:23:35.139Z,20.90
2023-07-30T12:27:36.805Z,20.80
2023-07-30T12:31:38.800Z,20.80
2023-07-30T12:35:40.658Z,20.70
2023-07-30T12:39:42.399Z,20.60
2023-07-30T12:43:44.135Z,20.50
2023-07-30T12:47:46.489Z,20.50
2023-07-30T12:51:48.462Z,20.50
2023-07-30T12:55:52.429Z,21.10
2023-07-30T12:59:54.130Z,21.40
2023-07-30T13:03:55.855Z,21.40
2023-07-30T13:07:57.609Z,21.80
2023-07-30T13:11:59.486Z,21.80
2023-07-30T13:16:02.523Z,21.40
2023-07-30T13:20:04.649Z,21.20
2023-07-30T13:24:06.618Z,21.20
2023-07-30T13:28:08.972Z,21.50
2023-07-30T13:32:10.748Z,21.70
2023-07-30T13:36:13.002Z,21.80
2023-07-30T13:40:14.668Z,21.90
2023-07-30T13:44:16.382Z,22.10
2023-07-30T13:48:18.259Z,22.20
2023-07-30T13:52:19.967Z,22.30
2023-07-30T13:56:21.615Z,22.20
2023-07-30T14:00:23.414Z,21.90
2023-07-30T14:04:25.183Z,21.20
2023-07-30T14:08:26.893Z,21.00
2023-07-30T14:12:28.584Z,20.90
2023-07-30T14:16:30.334Z,21.00
2023-07-30T14:20:32.055Z,20.90
2023-07-30T14:24:33.753Z,20.90
2023-07-30T14:28:35.483Z,20.90
2023-07-30T14:32:37.295Z,21.40
2023-07-30T14:36:38.970Z,21.70
2023-07-30T14:40:40.717Z,21.60
2023-07-30T14:44:42.381Z,21.50
2023-07-30T14:48:44.514Z,21.50
2023-07-30T14:52:46.505Z,21.30
2023-07-30T14:56:48.223Z,21.30
2023-07-30T15:00:50.322Z,21.20
2023-07-30T15:04:52.119Z,21.00
2023-07-30T15:08:53.894Z,21.00
2023-07-30T15:12:55.659Z,21.30
2023-07-30T15:16:57.646Z,22.00
2023-07-30T15:20:59.486Z,22.30
2023-07-30T15:25:01.257Z,22.00
2023-07-30T15:29:03.024Z,21.90
2023-07-30T15:33:04.832Z,21.80
2023-07-30T15:37:06.566Z,21.70
2023-07-30T15:41:08.229Z,21.40
2023-07-30T15:45:10.357Z,21.30
2023-07-30T15:49:12.072Z,21.60
2023-07-30T15:53:13.842Z,22.00
2023-07-30T15:57:16.062Z,22.10
2023-07-30T16:01:17.881Z,22.10
2023-07-30T16:05:19.630Z,21.90
2023-07-30T16:09:22.048Z,21.90
2023-07-30T16:13:23.739Z,22.10
2023-07-30T16:17:25.519Z,21.90
2023-07-30T16:21:27.427Z,21.90
2023-07-30T16:25:29.071Z,21.80
2023-07-30T16:29:31.370Z,21.50
2023-07-30T16:33:33.070Z,21.30
2023-07-30T16:37:34.952Z,21.30
2023-07-30T16:41:36.780Z,21.40
2023-07-30T16:45:38.511Z,21.30
2023-07-30T16:49:40.258Z,21.30
2023-07-30T16:53:41.895Z,21.20
2023-07-30T16:57:43.565Z,21.10
2023-07-30T17:01:45.216Z,21.10
2023-07-30T17:05:46.859Z,21.00
2023-07-30T17:09:48.549Z,21.00
2023-07-30T17:13:52.217Z,20.90
2023-07-30T17:17:53.877Z,20.90
2023-07-30T17:21:55.640Z,20.90
2023-07-30T17:25:59.886Z,20.90
2023-07-30T17:30:01.740Z,20.90
2023-07-30T17:34:03.472Z,20.70
2023-07-30T17:38:05.158Z,20.70
2023-07-30T17:42:08.922Z,20.60
2023-07-30T17:46:10.628Z,20.60
2023-07-30T17:50:12.329Z,20.70
2023-07-30T17:54:14.010Z,20.40
2023-07-30T17:58:15.742Z,20.20
2023-07-30T18:02:18.902Z,20.00
2023-07-30T18:06:20.623Z,19.60
2023-07-30T18:10:22.350Z,19.20
2023-07-30T18:14:24.120Z,18.60
2023-07-30T18:18:25.807Z,18.20
2023-07-30T18:22:27.767Z,17.60
2023-07-30T18:26:29.448Z,17.30
2023-07-30T18:30:31.130Z,16.90
2023-07-30T18:34:35.632Z,16.60
2023-07-30T18:38:37.352Z,16.60
2023-07-30T18:42:39.605Z,16.40
2023-07-30T18:46:42.108Z,16.40
2023-07-30T18:50:43.768Z,16.40
2023-07-30T18:54:45.936Z,16.30
2023-07-30T18:58:47.654Z,16.30
2023-07-30T19:02:49.436Z,16.30
2023-07-30T19:06:51.673Z,16.20
2023-07-30T19:10:53.492Z,16.30
2023-07-30T19:14:55.145Z,16.30
2023-07-30T19:18:56.966Z,16.30
2023-07-30T19:22:58.986Z,16.20
2023-07-30T19:27:01.253Z,16.20
2023-07-30T19:31:08.493Z,16.20
2023-07-30T19:35:10.276Z,16.10
2023-07-30T19:39:11.991Z,16.20
2023-07-30T19:43:13.655Z,16.20
2023-07-30T19:47:18.646Z,16.20
2023-07-30T19:51:20.769Z,16.20
2023-07-30T19:55:22.403Z,16.00
2023-07-30T19:59:24.136Z,15.90
2023-07-30T20:03:27.537Z,15.90
2023-07-30T20:07:29.250Z,15.80
2023-07-30T20:11:30.980Z,15.80
2023-07-30T20:15:38.688Z,15.80
2023-07-30T20:19:40.434Z,15.80
2023-07-30T20:23:42.215Z,15.80
2023-07-30T20:27:44.082Z,15.80
2023-07-30T20:31:45.895Z,15.70
2023-07-30T20:35:50.181Z,15.80
2023-07-30T20:39:51.868Z,15.70
2023-07-30T20:43:53.553Z,15.70
2023-07-30T20:47:55.466Z,15.60
2023-07-30T20:51:57.198Z,15.60
2023-07-30T20:56:02.328Z,15.60
2023-07-30T21:00:04.994Z,15.60
2023-07-30T21:04:06.763Z,15.60
2023-07-30T21:08:08.488Z,15.60
2023-07-30T21:12:10.424Z,15.60
2023-07-30T21:16:12.241Z,15.60
2023-07-30T21:20:13.963Z,15.50
2023-07-30T21:24:15.625Z,15.50
2023-07-30T21:28:17.312Z,15.50
2023-07-30T21:32:19.270Z,15.50
2023-07-30T21:36:21.172Z,15.50
2023-07-30T21:40:22.900Z,15.50
2023-07-30T21:44:24.629Z,15.50
2023-07-30T21:48:26.361Z,15.50
2023-07-30T21:52:30.998Z,15.50
2023-07-30T21:56:32.750Z,15.50
2023-07-30T22:00:34.438Z,15.50
2023-07-30T22:04:36.229Z,15.50
2023-07-30T22:08:37.993Z,15.50
2023-07-30T22:12:39.722Z,15.60
2023-07-30T22:16:42.034Z,15.60
2023-07-30T22:20:44.029Z,15.50
2023-07-30T22:24:45.688Z,15.50
2023-07-30T22:28:47.381Z,15.60
2023-07-30T22:32:49.170Z,15.50
2023-07-30T22:36:50.957Z,15.60
2023-07-30T22:40:52.748Z,15.60
2023-07-30T22:44:54.510Z,15.70
2023-07-30T22:48:56.178Z,15.60
2023-07-30T22:52:57.855Z,15.70
2023-07-30T22:57:00.503Z,15.70
2023-07-30T23:01:02.246Z,15.70
2023-07-30T23:05:04.207Z,15.70
2023-07-30T23:09:05.961Z,15.70
2023-07-30T23:13:09.454Z,15.70
2023-07-30T23:17:11.160Z,15.80
2023-07-30T23:21:12.817Z,15.80
2023-07-30T23:25:14.649Z,15.80
2023-07-30T23:29:16.301Z,15.80
2023-07-30T23:33:18.022Z,15.80
2023-07-30T23:37:19.695Z,15.80
2023-07-30T23:41:21.398Z,15.80
2023-07-30T23:45:23.108Z,15.80
2023-07-30T23:49:24.820Z,15.90
2023-07-30T23:53:26.532Z,15.90
2023-07-30T23:57:28.264Z,15.90
